createdAt,value
2018-01-17T00:02:02.508Z,95.42
2018-01-17T00:04:30.195Z,95.27
2018-01-17T00:06:57.996Z,95.22
2018-01-17T00:09:25.663Z,95.83
2018-01-17T00:11:53.404Z,95.76
2018-01-17T00:14:21.184Z,95.58
2018-01-17T00:16:48.805Z,95.54
2018-01-17T00:19:16.405Z,95.30
2018-01-17T00:21:44.156Z,95.04
2018-01-17T00:24:11.797Z,94.96
2018-01-17T00:26:39.514Z,95.08
2018-01-17T00:29:07.287Z,94.34
2018-01-17T00:31:35.106Z,93.94
2018-01-17T00:34:02.738Z,93.93
2018-01-17T00:36:30.419Z,94.14
2018-01-17T00:38:58.055Z,94.20
2018-01-17T00:41:25.803Z,93.20
2018-01-17T00:43:53.468Z,92.42
2018-01-17T00:46:21.090Z,93.25
2018-01-17T00:48:48.718Z,92.76
2018-01-17T00:51:16.348Z,93.05
2018-01-17T00:53:43.978Z,92.68
2018-01-17T00:56:11.780Z,92.98
2018-01-17T00:58:39.404Z,93.28
2018-01-17T01:01:07.218Z,92.69
2018-01-17T01:03:34.875Z,93.18
2018-01-17T01:06:02.629Z,93.96
2018-01-17T01:08:30.394Z,93.22
2018-01-17T01:10:58.020Z,93.67
2018-01-17T01:13:25.648Z,92.98
2018-01-17T01:15:53.298Z,92.81
2018-01-17T01:18:20.907Z,91.51
2018-01-17T01:20:48.514Z,92.14
2018-01-17T01:23:16.298Z,92.89
2018-01-17T01:25:43.910Z,92.79
2018-01-17T01:28:11.518Z,93.18
2018-01-17T01:30:39.138Z,93.09
2018-01-17T01:33:06.739Z,93.75
2018-01-17T01:35:34.466Z,93.79
2018-01-17T01:38:02.103Z,94.85
2018-01-17T01:40:29.878Z,95.53
2018-01-17T01:42:57.544Z,95.96
2018-01-17T01:45:25.238Z,94.32
2018-01-17T01:47:52.945Z,93.65
2018-01-17T01:50:20.558Z,94.44
2018-01-17T01:52:48.195Z,95.08
2018-01-17T01:55:15.943Z,94.52
2018-01-17T01:57:43.579Z,94.30
2018-01-17T02:00:11.178Z,94.60
2018-01-17T02:02:38.801Z,94.78
2018-01-17T02:05:06.424Z,95.11
2018-01-17T02:07:34.020Z,94.93
2018-01-17T02:10:01.805Z,96.41
2018-01-17T02:12:29.514Z,96.57
2018-01-17T02:14:57.135Z,96.26
2018-01-17T02:17:25.036Z,96.88
2018-01-17T02:19:52.653Z,96.93
2018-01-17T02:22:20.289Z,97.06
2018-01-17T02:24:47.959Z,97.13
2018-01-17T02:27:15.581Z,97.06
2018-01-17T02:29:43.269Z,96.66
2018-01-17T02:32:10.883Z,96.53
2018-01-17T02:34:38.509Z,96.17
2018-01-17T02:37:06.125Z,95.51
2018-01-17T02:42:42.900Z,95.47
2018-01-17T02:45:10.514Z,95.41
2018-01-17T02:47:38.219Z,95.24
2018-01-17T02:50:05.864Z,95.44
2018-01-17T02:52:33.630Z,95.38
2018-01-17T02:55:01.246Z,95.07
2018-01-17T02:57:28.844Z,93.72
2018-01-17T02:59:56.456Z,94.25
2018-01-17T03:02:24.106Z,94.35
2018-01-17T03:04:51.908Z,94.30
2018-01-17T03:07:19.509Z,93.90
2018-01-17T03:09:47.216Z,93.52
2018-01-17T03:12:14.864Z,93.85
2018-01-17T03:14:42.710Z,94.54
2018-01-17T03:17:10.334Z,94.34
2018-01-17T03:19:37.950Z,94.14
2018-01-17T03:22:05.698Z,93.65
2018-01-17T03:24:33.311Z,94.22
2018-01-17T03:27:01.071Z,94.61
2018-01-17T03:29:28.773Z,94.52
2018-01-17T03:31:56.416Z,94.44
2018-01-17T03:34:24.308Z,94.60
2018-01-17T03:36:51.957Z,94.46
2018-01-17T03:39:19.645Z,94.74
2018-01-17T03:41:47.263Z,94.84
2018-01-17T03:44:14.908Z,93.77
2018-01-17T03:46:42.540Z,93.42
2018-01-17T03:49:10.245Z,93.59
2018-01-17T03:51:37.824Z,92.89
2018-01-17T03:54:05.438Z,92.96
2018-01-17T03:56:33.554Z,92.19
2018-01-17T03:59:01.434Z,92.72
2018-01-17T04:01:29.141Z,92.84
2018-01-17T04:03:56.828Z,92.63
2018-01-17T04:06:24.471Z,92.17
2018-01-17T04:08:52.100Z,92.72
2018-01-17T04:11:19.885Z,91.98
2018-01-17T04:13:47.630Z,92.17
2018-01-17T04:16:15.345Z,92.25
2018-01-17T04:18:43.150Z,92.07
2018-01-17T04:21:11.020Z,92.31
2018-01-17T04:23:38.634Z,92.17
2018-01-17T04:26:06.305Z,92.60
2018-01-17T04:28:34.106Z,92.56
2018-01-17T04:31:01.990Z,93.39
2018-01-17T04:33:29.616Z,92.92
2018-01-17T04:35:57.210Z,92.29
2018-01-17T04:38:24.886Z,93.07
2018-01-17T04:40:52.562Z,93.69
2018-01-17T04:43:20.364Z,95.43
2018-01-17T04:45:48.014Z,94.70
2018-01-17T04:48:15.724Z,96.17
2018-01-17T04:50:43.430Z,97.10
2018-01-17T04:53:11.085Z,97.28
2018-01-17T04:55:38.808Z,97.85
2018-01-17T04:58:06.470Z,98.12
2018-01-17T05:00:34.143Z,97.86
2018-01-17T05:03:01.783Z,98.02
2018-01-17T05:05:29.436Z,98.62
2018-01-17T05:07:57.053Z,97.83
2018-01-17T05:10:24.650Z,97.44
2018-01-17T05:12:52.328Z,97.15
2018-01-17T05:15:20.020Z,95.63
2018-01-17T05:17:47.644Z,96.41
2018-01-17T05:20:15.374Z,95.54
2018-01-17T05:22:43.065Z,95.17
2018-01-17T05:25:10.783Z,95.22
2018-01-17T05:27:38.428Z,93.96
2018-01-17T05:30:06.079Z,94.39
2018-01-17T05:32:33.828Z,93.39
2018-01-17T05:35:01.616Z,94.46
2018-01-17T05:37:29.224Z,93.36
2018-01-17T05:39:56.854Z,93.29
2018-01-17T05:42:24.484Z,94.09
2018-01-17T05:44:52.113Z,92.63
2018-01-17T05:47:19.758Z,92.70
2018-01-17T05:49:47.356Z,92.60
2018-01-17T05:52:14.974Z,92.54
2018-01-17T05:54:42.674Z,91.73
2018-01-17T05:57:10.446Z,91.77
2018-01-17T05:59:38.059Z,91.53
2018-01-17T06:02:05.900Z,91.34
2018-01-17T06:04:33.540Z,90.72
2018-01-17T06:07:01.240Z,90.43
2018-01-17T06:09:28.856Z,90.04
2018-01-17T06:11:56.535Z,91.28
2018-01-17T06:14:24.155Z,90.43
2018-01-17T06:16:51.881Z,89.35
2018-01-17T06:19:19.499Z,89.72
2018-01-17T06:21:47.120Z,89.75
2018-01-17T06:24:14.899Z,89.25
2018-01-17T06:26:42.604Z,89.03
2018-01-17T06:29:10.245Z,89.84
2018-01-17T06:31:37.875Z,89.18
2018-01-17T06:34:05.498Z,89.83
2018-01-17T06:36:33.130Z,90.22
2018-01-17T06:39:00.811Z,90.01
2018-01-17T06:41:28.520Z,89.72
2018-01-17T06:43:56.229Z,90.10
2018-01-17T06:46:23.856Z,89.90
2018-01-17T06:48:51.748Z,89.53
2018-01-17T06:51:19.530Z,89.35
2018-01-17T06:53:47.126Z,88.89
2018-01-17T06:56:14.919Z,89.60
2018-01-17T06:58:42.530Z,90.17
2018-01-17T07:01:10.218Z,89.88
2018-01-17T07:03:37.844Z,90.95
2018-01-17T07:06:05.475Z,90.19
2018-01-17T07:08:33.091Z,90.54
2018-01-17T07:11:00.756Z,89.92
2018-01-17T07:13:28.400Z,90.10
2018-01-17T07:15:56.056Z,92.02
2018-01-17T07:18:23.666Z,94.22
2018-01-17T07:20:51.299Z,94.67
2018-01-17T07:23:18.935Z,95.15
2018-01-17T07:25:46.540Z,94.03
2018-01-17T07:28:14.176Z,93.97
2018-01-17T07:30:41.966Z,93.41
2018-01-17T07:33:09.629Z,93.32
2018-01-17T07:35:37.415Z,93.48
2018-01-17T07:38:05.065Z,91.67
2018-01-17T07:40:32.760Z,92.01
2018-01-17T07:43:00.614Z,92.09
2018-01-17T07:45:28.250Z,90.77
2018-01-17T07:47:55.912Z,89.71
2018-01-17T07:50:23.545Z,89.52
2018-01-17T07:52:51.270Z,89.04
2018-01-17T07:55:18.904Z,87.28
2018-01-17T07:57:46.540Z,87.54
2018-01-17T08:00:14.239Z,84.51
2018-01-17T08:02:41.920Z,86.48
2018-01-17T08:05:09.626Z,84.89
2018-01-17T08:07:37.254Z,82.20
2018-01-17T08:10:05.111Z,81.04
2018-01-17T08:12:32.750Z,79.42
2018-01-17T08:15:00.356Z,79.14
2018-01-17T08:17:28.154Z,78.83
2018-01-17T08:19:55.895Z,79.13
2018-01-17T08:22:23.601Z,79.34
2018-01-17T08:24:51.221Z,79.40
2018-01-17T08:27:18.926Z,78.24
2018-01-17T08:29:46.630Z,77.83
2018-01-17T08:32:14.240Z,76.38
2018-01-17T08:34:41.856Z,77.55
2018-01-17T08:37:09.536Z,74.85
2018-01-17T08:39:37.194Z,76.15
2018-01-17T08:42:04.832Z,77.41
2018-01-17T08:44:32.482Z,75.72
2018-01-17T08:47:00.175Z,76.76
2018-01-17T08:49:27.814Z,75.53
2018-01-17T08:51:55.454Z,75.31
2018-01-17T08:54:23.355Z,72.77
2018-01-17T08:56:50.975Z,72.35
2018-01-17T08:59:18.640Z,73.48
2018-01-17T09:01:46.382Z,71.06
2018-01-17T09:04:14.257Z,73.41
2018-01-17T09:06:41.863Z,71.94
2018-01-17T09:09:09.446Z,73.25
2018-01-17T09:11:37.087Z,72.19
2018-01-17T09:14:04.735Z,72.14
2018-01-17T09:16:32.605Z,73.36
2018-01-17T09:19:00.338Z,74.78
2018-01-17T09:21:28.220Z,74.69
2018-01-17T09:23:55.976Z,74.38
2018-01-17T09:26:23.625Z,75.24
2018-01-17T09:28:51.291Z,75.24
2018-01-17T09:31:18.963Z,74.24
2018-01-17T09:33:46.690Z,76.10
2018-01-17T09:36:14.315Z,76.26
2018-01-17T09:38:41.992Z,76.53
2018-01-17T09:41:09.802Z,77.05
2018-01-17T09:43:37.410Z,77.09
2018-01-17T09:46:05.056Z,76.73
2018-01-17T09:48:32.671Z,78.95
2018-01-17T09:51:00.292Z,84.47
2018-01-17T09:53:27.919Z,87.25
2018-01-17T09:55:55.720Z,90.30
2018-01-17T09:58:23.540Z,92.98
2018-01-17T10:00:51.191Z,94.18
2018-01-17T10:03:18.882Z,95.22
2018-01-17T10:05:46.622Z,95.76
2018-01-17T10:08:14.287Z,96.55
2018-01-17T10:10:41.924Z,96.84
2018-01-17T10:13:09.526Z,96.23
2018-01-17T10:15:37.230Z,95.20
2018-01-17T10:18:04.895Z,94.62
2018-01-17T10:20:32.505Z,94.05
2018-01-17T10:23:00.257Z,93.72
2018-01-17T10:25:27.902Z,94.72
2018-01-17T10:27:55.528Z,94.78
2018-01-17T10:30:23.297Z,94.33
2018-01-17T10:32:51.053Z,93.88
2018-01-17T10:35:18.685Z,93.24
2018-01-17T10:37:46.297Z,92.76
2018-01-17T10:40:14.145Z,94.25
2018-01-17T10:42:41.862Z,90.89
2018-01-17T10:45:09.507Z,88.46
2018-01-17T10:47:37.235Z,85.83
2018-01-17T10:50:04.835Z,84.17
2018-01-17T10:52:32.533Z,84.75
2018-01-17T10:55:00.191Z,83.82
2018-01-17T10:57:27.810Z,82.28
2018-01-17T10:59:55.602Z,83.48
2018-01-17T11:02:23.311Z,84.11
2018-01-17T11:04:50.952Z,82.21
2018-01-17T11:07:18.552Z,84.04
2018-01-17T11:09:46.319Z,81.58
2018-01-17T11:12:13.967Z,81.57
2018-01-17T11:14:41.601Z,82.89
2018-01-17T11:17:09.358Z,80.84
2018-01-17T11:19:37.027Z,83.76
2018-01-17T11:22:04.812Z,82.22
2018-01-17T11:24:32.504Z,81.25
2018-01-17T11:27:00.148Z,84.63
2018-01-17T11:29:27.794Z,84.27
2018-01-17T11:31:55.503Z,83.23
2018-01-17T11:34:23.296Z,84.87
2018-01-17T11:36:50.896Z,80.22
2018-01-17T11:39:18.557Z,79.02
2018-01-17T11:41:46.161Z,77.04
2018-01-17T11:44:13.896Z,78.39
2018-01-17T11:46:41.567Z,79.12
2018-01-17T11:49:09.183Z,75.20
2018-01-17T11:51:36.797Z,76.54
2018-01-17T11:54:04.507Z,75.37
2018-01-17T11:56:32.131Z,76.10
2018-01-17T11:58:59.845Z,76.32
2018-01-17T12:01:27.485Z,77.00
2018-01-17T12:03:55.172Z,77.29
2018-01-17T12:06:22.971Z,78.25
2018-01-17T12:08:50.641Z,84.22
2018-01-17T12:11:18.261Z,86.89
2018-01-17T12:13:45.922Z,86.72
2018-01-17T12:16:13.751Z,87.68
2018-01-17T12:18:41.460Z,89.24
2018-01-17T12:21:09.325Z,88.91
2018-01-17T12:23:36.966Z,88.57
2018-01-17T12:26:04.616Z,88.14
2018-01-17T12:28:32.343Z,88.62
2018-01-17T12:31:00.032Z,87.24
2018-01-17T12:33:27.670Z,82.79
2018-01-17T12:35:55.276Z,84.05
2018-01-17T12:38:23.057Z,83.78
2018-01-17T12:40:50.864Z,83.73
2018-01-17T12:43:18.512Z,83.40
2018-01-17T12:45:46.288Z,84.39
2018-01-17T12:48:13.947Z,81.58
2018-01-17T12:50:41.575Z,82.45
2018-01-17T12:53:09.286Z,80.59
2018-01-17T12:55:36.931Z,81.66
2018-01-17T12:58:04.716Z,80.78
2018-01-17T13:00:32.386Z,81.95
2018-01-17T13:03:00.026Z,81.93
2018-01-17T13:05:27.680Z,81.55
2018-01-17T13:07:55.291Z,80.90
2018-01-17T13:10:23.953Z,79.84
2018-01-17T13:12:51.668Z,79.65
2018-01-17T13:15:19.422Z,80.76
2018-01-17T13:17:47.063Z,81.00
2018-01-17T13:20:14.666Z,80.78
2018-01-17T13:22:42.292Z,79.34
2018-01-17T13:25:10.196Z,80.40
2018-01-17T13:27:37.869Z,80.67
2018-01-17T13:30:05.493Z,80.00
2018-01-17T13:32:33.287Z,80.23
2018-01-17T13:35:00.910Z,81.02
2018-01-17T13:37:28.732Z,77.93
2018-01-17T13:39:56.463Z,77.20
2018-01-17T13:42:24.281Z,79.30
2018-01-17T13:44:52.007Z,75.91
2018-01-17T13:47:19.932Z,74.84
2018-01-17T13:49:47.643Z,74.82
2018-01-17T13:52:15.283Z,75.56
2018-01-17T13:54:42.956Z,75.59
2018-01-17T13:57:10.820Z,75.80
2018-01-17T13:59:38.437Z,75.70
2018-01-17T14:02:06.126Z,75.49
2018-01-17T14:04:33.865Z,76.31
2018-01-17T14:07:01.597Z,76.05
2018-01-17T14:09:29.241Z,77.37
2018-01-17T14:11:56.861Z,79.31
2018-01-17T14:14:24.713Z,76.87
2018-01-17T14:16:52.332Z,77.83
2018-01-17T14:19:19.992Z,77.55
2018-01-17T14:21:47.648Z,78.51
2018-01-17T14:24:15.292Z,77.70
2018-01-17T14:26:43.207Z,78.89
2018-01-17T14:29:10.838Z,80.99
2018-01-17T14:31:38.467Z,83.45
2018-01-17T14:34:06.096Z,85.97
2018-01-17T14:36:33.726Z,87.40
2018-01-17T14:39:01.340Z,86.07
2018-01-17T14:41:29.139Z,86.02
2018-01-17T14:43:56.761Z,86.54
2018-01-17T14:46:24.371Z,86.62
2018-01-17T14:48:52.026Z,86.44
2018-01-17T14:51:19.671Z,85.86
2018-01-17T14:53:47.385Z,85.42
2018-01-17T14:56:15.122Z,85.24
2018-01-17T14:58:42.747Z,84.57
2018-01-17T15:01:10.386Z,83.83
2018-01-17T15:03:38.032Z,82.53
2018-01-17T15:06:05.792Z,81.64
2018-01-17T15:08:33.496Z,82.55
2018-01-17T15:11:01.253Z,82.26
2018-01-17T15:13:28.864Z,82.28
2018-01-17T15:15:56.504Z,83.40
2018-01-17T15:18:24.143Z,84.68
2018-01-17T15:20:51.787Z,85.32
2018-01-17T15:23:19.521Z,85.57
2018-01-17T15:25:47.231Z,84.82
2018-01-17T15:28:14.872Z,85.47
2018-01-17T15:30:42.536Z,83.94
2018-01-17T15:33:10.196Z,84.38
2018-01-17T15:35:37.812Z,84.08
2018-01-17T15:38:05.428Z,83.41
2018-01-17T15:40:33.088Z,83.35
2018-01-17T15:43:00.732Z,82.82
2018-01-17T15:45:28.357Z,83.20
2018-01-17T15:47:56.058Z,82.68
2018-01-17T15:50:23.930Z,83.72
2018-01-17T15:52:51.561Z,84.75
2018-01-17T15:55:19.246Z,85.24
2018-01-17T15:57:46.869Z,85.66
2018-01-17T16:00:14.491Z,85.61
2018-01-17T16:02:42.287Z,86.25
2018-01-17T16:05:10.001Z,85.33
2018-01-17T16:07:37.803Z,85.19
2018-01-17T16:10:05.472Z,85.04
2018-01-17T16:12:33.311Z,85.62
2018-01-17T16:15:00.951Z,85.14
2018-01-17T16:17:28.711Z,84.13
2018-01-17T16:19:56.433Z,83.74
2018-01-17T16:22:24.243Z,84.04
2018-01-17T16:24:51.874Z,84.59
2018-01-17T16:27:19.482Z,84.12
2018-01-17T16:29:47.111Z,84.59
2018-01-17T16:32:14.907Z,83.77
2018-01-17T16:34:42.547Z,82.65
2018-01-17T16:37:10.177Z,82.16
2018-01-17T16:39:37.822Z,81.70
2018-01-17T16:42:05.512Z,82.25
2018-01-17T16:44:33.420Z,81.99
2018-01-17T16:47:01.039Z,81.67
2018-01-17T16:49:28.902Z,82.28
2018-01-17T16:51:56.548Z,81.74
2018-01-17T16:54:24.269Z,81.21
2018-01-17T16:56:51.968Z,81.85
2018-01-17T16:59:19.611Z,82.57
2018-01-17T17:01:47.227Z,81.35
2018-01-17T17:04:14.868Z,80.72
2018-01-17T17:06:42.544Z,78.69
2018-01-17T17:09:10.263Z,78.49
2018-01-17T17:11:37.943Z,77.63
2018-01-17T17:14:05.574Z,77.13
2018-01-17T17:16:33.283Z,77.33
2018-01-17T17:19:01.050Z,77.08
2018-01-17T17:21:28.678Z,78.08
2018-01-17T17:23:56.391Z,79.43
2018-01-17T17:26:24.003Z,81.24
2018-01-17T17:28:51.774Z,82.05
2018-01-17T17:31:19.432Z,82.42
2018-01-17T17:33:47.123Z,82.25
2018-01-17T17:36:14.892Z,83.34
2018-01-17T17:38:42.514Z,83.46
2018-01-17T17:41:10.270Z,83.39
2018-01-17T17:43:37.942Z,83.82
2018-01-17T17:46:05.767Z,83.90
2018-01-17T17:48:33.384Z,84.24
2018-01-17T17:51:01.025Z,84.84
2018-01-17T17:53:28.648Z,84.75
2018-01-17T17:55:56.370Z,84.56
2018-01-17T17:58:24.059Z,84.84
2018-01-17T18:00:51.918Z,84.67
2018-01-17T18:03:19.528Z,85.51
2018-01-17T18:05:47.201Z,85.58
2018-01-17T18:08:14.990Z,85.63
2018-01-17T18:10:44.242Z,85.49
2018-01-17T18:13:11.868Z,84.48
2018-01-17T18:15:39.707Z,84.91
2018-01-17T18:18:07.573Z,84.51
2018-01-17T18:20:35.217Z,84.09
2018-01-17T18:23:02.956Z,84.07
2018-01-17T18:25:30.651Z,83.84
2018-01-17T18:27:58.384Z,84.72
2018-01-17T18:30:26.297Z,86.35
2018-01-17T18:32:54.209Z,87.95
2018-01-17T18:35:21.838Z,89.19
2018-01-17T18:37:49.497Z,89.38
2018-01-17T18:40:17.264Z,89.99
2018-01-17T18:42:44.958Z,90.39
2018-01-17T18:45:12.666Z,90.95
2018-01-17T18:47:40.343Z,90.36
2018-01-17T18:50:08.055Z,90.30
2018-01-17T18:52:35.691Z,90.87
2018-01-17T18:55:03.529Z,90.82
2018-01-17T18:57:31.334Z,90.77
2018-01-17T18:59:59.056Z,91.08
2018-01-17T19:02:26.816Z,91.75
2018-01-17T19:04:54.687Z,91.88
2018-01-17T19:07:22.437Z,91.97
2018-01-17T19:09:50.068Z,91.78
2018-01-17T19:12:17.720Z,91.60
2018-01-17T19:14:45.528Z,90.40
2018-01-17T19:17:13.209Z,89.87
2018-01-17T19:19:40.828Z,89.62
2018-01-17T19:22:08.637Z,88.74
2018-01-17T19:24:36.532Z,89.18
2018-01-17T19:27:04.209Z,87.54
2018-01-17T19:29:31.842Z,87.25
2018-01-17T19:31:59.683Z,86.90
2018-01-17T19:34:27.349Z,86.76
2018-01-17T19:36:55.041Z,87.58
2018-01-17T19:39:22.775Z,87.48
2018-01-17T19:41:50.439Z,88.15
2018-01-17T19:44:18.094Z,88.41
2018-01-17T19:46:45.703Z,88.43
2018-01-17T19:49:13.382Z,88.86
2018-01-17T19:51:41.051Z,88.67
2018-01-17T19:54:08.682Z,88.34
2018-01-17T19:56:36.340Z,88.12
2018-01-17T19:59:04.037Z,87.87
2018-01-17T20:01:31.862Z,87.60
2018-01-17T20:03:59.703Z,87.55
2018-01-17T20:06:27.683Z,88.50
2018-01-17T20:08:55.327Z,88.50
2018-01-17T20:11:23.262Z,89.30
2018-01-17T20:13:51.162Z,89.02
2018-01-17T20:16:18.808Z,89.24
2018-01-17T20:18:46.482Z,89.69
2018-01-17T20:21:14.123Z,89.98
2018-01-17T20:23:41.807Z,89.02
2018-01-17T20:26:09.457Z,89.82
2018-01-17T20:28:37.176Z,89.91
2018-01-17T20:31:04.928Z,89.46
2018-01-17T20:33:32.627Z,89.80
2018-01-17T20:36:00.245Z,90.39
2018-01-17T20:38:27.927Z,90.51
2018-01-17T20:40:55.669Z,90.56
2018-01-17T20:43:23.307Z,90.32
2018-01-17T20:45:50.922Z,90.92
2018-01-17T20:48:18.592Z,90.51
2018-01-17T20:50:46.302Z,90.87
2018-01-17T20:53:13.996Z,90.57
2018-01-17T20:55:41.783Z,90.44
2018-01-17T20:58:09.407Z,91.22
2018-01-17T21:00:37.037Z,91.11
2018-01-17T21:03:04.644Z,91.13
2018-01-17T21:05:32.282Z,91.01
2018-01-17T21:07:59.942Z,90.20
2018-01-17T21:10:27.593Z,89.60
2018-01-17T21:12:55.258Z,89.08
2018-01-17T21:15:22.948Z,88.11
2018-01-17T21:17:50.721Z,87.68
2018-01-17T21:20:18.348Z,86.90
2018-01-17T21:22:46.032Z,87.69
2018-01-17T21:25:13.708Z,89.39
2018-01-17T21:27:41.417Z,90.96
2018-01-17T21:30:09.091Z,92.27
2018-01-17T21:32:36.743Z,93.96
2018-01-17T21:35:04.508Z,94.28
2018-01-17T21:37:32.198Z,94.92
2018-01-17T21:39:59.846Z,94.98
2018-01-17T21:42:33.157Z,95.32
2018-01-17T21:45:06.543Z,95.28
2018-01-17T21:47:34.186Z,95.09
2018-01-17T21:50:01.987Z,95.84
2018-01-17T21:52:29.632Z,96.07
2018-01-17T21:54:57.273Z,95.50
2018-01-17T21:57:24.919Z,94.84
2018-01-17T21:59:52.718Z,95.55
2018-01-17T22:02:20.328Z,95.22
2018-01-17T22:04:48.013Z,95.34
2018-01-17T22:07:15.640Z,95.66
2018-01-17T22:09:43.327Z,95.77
2018-01-17T22:12:10.978Z,95.46
2018-01-17T22:14:38.847Z,94.15
2018-01-17T22:17:06.682Z,93.68
2018-01-17T22:19:34.283Z,94.48
2018-01-17T22:22:01.917Z,94.79
2018-01-17T22:24:29.723Z,95.37
2018-01-17T22:26:57.360Z,95.50
2018-01-17T22:29:25.070Z,95.24
2018-01-17T22:31:52.697Z,95.48
2018-01-17T22:34:20.312Z,95.52
2018-01-17T22:36:47.952Z,95.24
2018-01-17T22:39:15.572Z,95.79
2018-01-17T22:41:43.197Z,96.14
2018-01-17T22:44:10.817Z,96.59
2018-01-17T22:46:38.583Z,96.72
2018-01-17T22:49:06.180Z,96.34
2018-01-17T22:51:34.741Z,96.43
2018-01-17T22:54:02.367Z,96.52
2018-01-17T22:56:29.982Z,96.72
2018-01-17T22:58:57.617Z,96.79
2018-01-17T23:01:25.496Z,96.59
2018-01-17T23:03:53.128Z,95.92
2018-01-17T23:06:20.799Z,96.02
2018-01-17T23:08:48.414Z,96.44
2018-01-17T23:11:16.050Z,96.45
2018-01-17T23:13:43.753Z,96.16
2018-01-17T23:16:11.458Z,96.36
2018-01-17T23:18:39.083Z,96.42
2018-01-17T23:21:06.693Z,96.54
2018-01-17T23:23:34.523Z,96.14
2018-01-17T23:26:02.123Z,96.48
2018-01-17T23:28:29.727Z,96.78
2018-01-17T23:30:57.365Z,96.80
2018-01-17T23:33:25.147Z,96.91
2018-01-17T23:35:52.804Z,97.21
2018-01-17T23:38:20.472Z,96.29
2018-01-17T23:40:48.885Z,95.34
2018-01-17T23:43:16.507Z,94.86
2018-01-17T23:45:44.163Z,93.14
2018-01-17T23:48:11.793Z,92.28
2018-01-17T23:50:39.507Z,91.74
2018-01-17T23:53:07.177Z,91.19
2018-01-17T23:55:34.906Z,91.17
2018-01-17T23:58:02.518Z,89.97
